createdAt,value
2023-08-19T00:01:23.985Z,90.90
2023-08-19T00:03:50.550Z,90.80
2023-08-19T00:06:17.118Z,90.80
2023-08-19T00:08:43.642Z,90.90
2023-08-19T00:11:10.197Z,90.80
2023-08-19T00:13:39.097Z,90.80
2023-08-19T00:16:05.771Z,90.80
2023-08-19T00:18:32.337Z,90.90
2023-08-19T00:20:58.871Z,90.80
2023-08-19T00:23:27.819Z,90.80
2023-08-19T00:28:45.005Z,90.80
2023-08-19T00:31:11.570Z,90.80
2023-08-19T00:33:38.104Z,90.80
2023-08-19T00:36:04.608Z,90.80
2023-08-19T00:38:31.118Z,90.70
2023-08-19T00:40:57.626Z,90.70
2023-08-19T00:43:24.165Z,90.70
2023-08-19T00:48:41.281Z,90.70
2023-08-19T00:51:07.804Z,90.70
2023-08-19T00:53:34.386Z,90.80
2023-08-19T00:56:00.896Z,90.80
2023-08-19T00:58:27.414Z,90.80
2023-08-19T01:00:57.953Z,90.80
2023-08-19T01:03:24.577Z,90.80
2023-08-19T01:05:51.151Z,90.80
2023-08-19T01:08:17.665Z,90.80
2023-08-19T01:10:44.263Z,90.80
2023-08-19T01:13:15.930Z,90.80
2023-08-19T01:15:42.458Z,90.80
2023-08-19T01:18:09.143Z,90.80
2023-08-19T01:20:35.673Z,90.80
2023-08-19T01:23:02.193Z,90.80
2023-08-19T01:25:28.700Z,90.80
2023-08-19T01:27:55.212Z,90.80
2023-08-19T01:30:21.710Z,90.80
2023-08-19T01:32:48.238Z,90.80
2023-08-19T01:35:14.771Z,90.80
2023-08-19T01:37:41.308Z,90.80
2023-08-19T01:40:07.868Z,90.80
2023-08-19T01:42:34.378Z,90.80
2023-08-19T01:45:00.888Z,90.70
2023-08-19T01:47:27.482Z,90.80
2023-08-19T01:49:54.075Z,90.70
2023-08-19T01:52:20.628Z,90.70
2023-08-19T01:54:47.159Z,90.70
2023-08-19T01:57:13.700Z,90.70
2023-08-19T01:59:40.189Z,90.80
2023-08-19T02:02:06.719Z,90.70
2023-08-19T02:04:33.226Z,90.70
2023-08-19T02:06:59.754Z,90.90
2023-08-19T02:09:27.068Z,90.70
2023-08-19T02:11:53.581Z,90.70
2023-08-19T02:14:20.104Z,90.70
2023-08-19T02:16:46.633Z,90.70
2023-08-19T02:19:13.180Z,90.70
2023-08-19T02:21:39.907Z,90.70
2023-08-19T02:24:06.419Z,90.70
2023-08-19T02:26:32.943Z,90.70
2023-08-19T02:28:59.473Z,90.70
2023-08-19T02:31:26.018Z,90.70
2023-08-19T02:33:52.541Z,90.80
2023-08-19T02:36:19.057Z,90.60
2023-08-19T02:38:45.581Z,90.70
2023-08-19T02:41:12.106Z,90.50
2023-08-19T02:43:38.638Z,90.20
2023-08-19T02:46:05.196Z,90.10
2023-08-19T02:48:31.742Z,89.60
2023-08-19T02:50:58.377Z,89.50
2023-08-19T02:53:24.911Z,89.40
2023-08-19T02:55:51.430Z,88.90
2023-08-19T02:58:17.932Z,88.90
2023-08-19T03:00:46.717Z,88.80
2023-08-19T03:03:13.294Z,88.70
2023-08-19T03:05:39.850Z,88.60
2023-08-19T03:08:06.374Z,88.50
2023-08-19T03:10:32.971Z,88.30
2023-08-19T03:12:59.492Z,88.20
2023-08-19T03:15:26.005Z,88.10
2023-08-19T03:17:52.555Z,88.20
2023-08-19T03:20:21.967Z,88.10
2023-08-19T03:22:48.487Z,88.00
2023-08-19T03:25:15.024Z,88.00
2023-08-19T03:27:41.519Z,88.00
2023-08-19T03:30:08.019Z,87.90
2023-08-19T03:32:40.106Z,87.80
2023-08-19T03:35:06.669Z,87.80
2023-08-19T03:37:33.413Z,87.70
2023-08-19T03:40:00.229Z,87.70
2023-08-19T03:42:26.785Z,87.80
2023-08-19T03:44:53.333Z,87.80
2023-08-19T03:47:19.858Z,87.90
2023-08-19T03:49:46.382Z,87.70
2023-08-19T03:52:20.510Z,87.70
2023-08-19T03:54:47.046Z,87.70
2023-08-19T03:57:13.572Z,87.70
2023-08-19T03:59:40.082Z,87.60
2023-08-19T04:02:06.607Z,87.70
2023-08-19T04:04:33.119Z,87.60
2023-08-19T04:06:59.664Z,87.60
2023-08-19T04:09:26.199Z,87.60
2023-08-19T04:11:52.847Z,87.60
2023-08-19T04:14:19.479Z,87.50
2023-08-19T04:16:46.034Z,87.60
2023-08-19T04:19:13.132Z,87.60
2023-08-19T04:21:39.847Z,87.50
2023-08-19T04:24:06.357Z,87.50
2023-08-19T04:26:32.905Z,87.50
2023-08-19T04:29:04.072Z,87.60
2023-08-19T04:31:30.591Z,87.60
2023-08-19T04:34:04.273Z,87.50
2023-08-19T04:36:30.786Z,87.50
2023-08-19T04:38:57.341Z,87.50
2023-08-19T04:41:23.854Z,87.60
2023-08-19T04:43:50.355Z,87.50
2023-08-19T04:46:16.912Z,87.50
2023-08-19T04:48:43.450Z,87.50
2023-08-19T04:51:09.998Z,87.60
2023-08-19T04:53:36.516Z,87.80
2023-08-19T04:56:03.052Z,88.10
2023-08-19T04:58:29.562Z,87.70
2023-08-19T05:00:56.077Z,88.20
2023-08-19T05:03:22.645Z,88.40
2023-08-19T05:05:49.139Z,88.80
2023-08-19T05:08:15.677Z,88.80
2023-08-19T05:10:42.228Z,89.20
2023-08-19T05:13:08.738Z,88.90
2023-08-19T05:15:35.312Z,88.80
2023-08-19T05:18:01.905Z,88.90
2023-08-19T05:20:28.452Z,88.80
2023-08-19T05:22:55.000Z,89.00
2023-08-19T05:25:21.512Z,88.90
2023-08-19T05:27:48.049Z,88.80
2023-08-19T05:30:14.598Z,88.60
2023-08-19T05:32:46.187Z,88.70
2023-08-19T05:35:12.720Z,89.50
2023-08-19T05:37:39.270Z,88.70
2023-08-19T05:40:05.774Z,88.70
2023-08-19T05:42:32.290Z,88.60
2023-08-19T05:45:04.213Z,88.60
2023-08-19T05:47:33.279Z,88.50
2023-08-19T05:50:00.192Z,88.40
2023-08-19T05:52:26.701Z,88.40
2023-08-19T05:54:53.229Z,88.40
2023-08-19T05:57:19.748Z,88.30
2023-08-19T05:59:46.267Z,88.30
2023-08-19T06:02:12.791Z,88.20
2023-08-19T06:04:40.120Z,88.20
2023-08-19T06:07:06.624Z,88.20
2023-08-19T06:09:33.145Z,88.30
2023-08-19T06:11:59.721Z,88.20
2023-08-19T06:14:26.275Z,88.20
2023-08-19T06:16:52.800Z,88.20
2023-08-19T06:19:19.323Z,88.10
2023-08-19T06:21:45.832Z,88.00
2023-08-19T06:24:12.322Z,88.10
2023-08-19T06:26:38.875Z,88.10
2023-08-19T06:29:05.414Z,88.00
2023-08-19T06:31:31.940Z,88.10
2023-08-19T06:33:58.466Z,88.10
2023-08-19T06:36:25.015Z,88.00
2023-08-19T06:38:51.569Z,88.00
2023-08-19T06:41:18.096Z,88.00
2023-08-19T06:43:44.690Z,88.00
2023-08-19T06:46:11.215Z,88.00
2023-08-19T06:48:37.739Z,88.00
2023-08-19T06:51:04.351Z,87.90
2023-08-19T06:53:30.944Z,88.00
2023-08-19T06:56:00.795Z,88.00
2023-08-19T06:58:27.294Z,88.00
2023-08-19T07:00:53.820Z,88.00
2023-08-19T07:03:20.387Z,88.20
2023-08-19T07:05:46.933Z,88.10
2023-08-19T07:08:13.428Z,88.10
2023-08-19T07:10:40.161Z,87.90
2023-08-19T07:13:06.733Z,88.00
2023-08-19T07:15:33.290Z,88.00
2023-08-19T07:18:04.280Z,88.00
2023-08-19T07:20:30.838Z,88.10
2023-08-19T07:22:57.349Z,88.20
2023-08-19T07:25:23.871Z,88.20
2023-08-19T07:27:50.453Z,88.30
2023-08-19T07:32:57.321Z,88.10
2023-08-19T07:35:23.912Z,88.10
2023-08-19T07:37:50.440Z,88.00
2023-08-19T07:40:16.965Z,87.90
2023-08-19T07:42:43.541Z,88.00
2023-08-19T07:45:10.224Z,88.10
2023-08-19T07:47:36.777Z,88.10
2023-08-19T07:50:03.347Z,88.20
2023-08-19T07:52:29.878Z,88.10
2023-08-19T07:54:56.384Z,88.20
2023-08-19T07:57:22.902Z,88.20
2023-08-19T07:59:49.455Z,88.30
2023-08-19T08:02:16.046Z,88.20
2023-08-19T08:04:42.599Z,88.20
2023-08-19T08:07:09.134Z,88.40
2023-08-19T08:09:35.658Z,88.30
2023-08-19T08:12:07.969Z,88.40
2023-08-19T08:14:34.492Z,89.10
2023-08-19T08:17:01.009Z,88.50
2023-08-19T08:19:27.512Z,88.50
2023-08-19T08:21:54.043Z,88.30
2023-08-19T08:24:29.559Z,88.50
2023-08-19T08:26:56.114Z,88.60
2023-08-19T08:29:28.285Z,88.50
2023-08-19T08:31:54.860Z,88.60
2023-08-19T08:34:21.405Z,88.40
2023-08-19T08:36:48.495Z,88.40
2023-08-19T08:39:15.019Z,88.50
2023-08-19T08:41:41.548Z,88.60
2023-08-19T08:44:08.062Z,88.60
2023-08-19T08:46:34.600Z,88.50
2023-08-19T08:49:01.125Z,88.40
2023-08-19T08:51:27.678Z,88.40
2023-08-19T08:54:01.997Z,88.40
2023-08-19T08:56:28.755Z,88.30
2023-08-19T08:58:55.278Z,88.40
2023-08-19T09:01:21.881Z,89.00
2023-08-19T09:03:48.441Z,88.30
2023-08-19T09:06:14.981Z,88.30
2023-08-19T09:08:41.519Z,88.40
2023-08-19T09:11:09.356Z,88.40
2023-08-19T09:13:35.910Z,88.30
2023-08-19T09:16:02.573Z,88.40
2023-08-19T09:18:29.133Z,88.50
2023-08-19T09:20:55.770Z,88.50
2023-08-19T09:23:22.356Z,88.50
2023-08-19T09:25:48.867Z,88.50
2023-08-19T09:28:15.401Z,88.60
2023-08-19T09:30:41.902Z,88.60
2023-08-19T09:33:08.454Z,88.70
2023-08-19T09:35:45.160Z,88.70
2023-08-19T09:38:19.938Z,88.70
2023-08-19T09:40:46.571Z,88.70
2023-08-19T09:43:13.067Z,88.80
2023-08-19T09:45:39.570Z,89.30
2023-08-19T09:48:06.165Z,88.70
2023-08-19T09:50:32.711Z,88.90
2023-08-19T09:52:59.262Z,88.70
2023-08-19T09:55:25.805Z,88.90
2023-08-19T09:57:52.328Z,88.80
2023-08-19T10:00:18.893Z,88.80
2023-08-19T10:02:45.467Z,88.80
2023-08-19T10:05:12.006Z,88.80
2023-08-19T10:07:38.512Z,88.80
2023-08-19T10:10:05.028Z,88.80
2023-08-19T10:12:31.880Z,88.80
2023-08-19T10:14:58.595Z,88.90
2023-08-19T10:17:25.169Z,88.90
2023-08-19T10:19:52.300Z,88.90
2023-08-19T10:22:18.839Z,88.90
2023-08-19T10:24:45.386Z,88.90
2023-08-19T10:27:11.932Z,89.10
2023-08-19T10:29:40.342Z,89.10
2023-08-19T10:32:06.862Z,89.00
2023-08-19T10:34:33.368Z,89.00
2023-08-19T10:37:00.397Z,89.00
2023-08-19T10:39:26.898Z,89.10
2023-08-19T10:41:53.395Z,89.10
2023-08-19T10:44:19.911Z,89.20
2023-08-19T10:46:46.491Z,89.10
2023-08-19T10:49:13.045Z,89.20
2023-08-19T10:51:39.556Z,89.10
2023-08-19T10:54:06.069Z,89.00
2023-08-19T10:56:32.582Z,89.20
2023-08-19T10:58:59.149Z,89.10
2023-08-19T11:01:25.686Z,89.40
2023-08-19T11:03:53.316Z,89.30
2023-08-19T11:06:19.819Z,89.40
2023-08-19T11:08:46.457Z,89.40
2023-08-19T11:11:15.466Z,89.40
2023-08-19T11:13:42.205Z,89.40
2023-08-19T11:16:08.757Z,89.40
2023-08-19T11:18:35.311Z,89.30
2023-08-19T11:21:01.810Z,89.40
2023-08-19T11:23:28.336Z,89.40
2023-08-19T11:26:02.828Z,89.50
2023-08-19T11:28:29.360Z,89.50
2023-08-19T11:30:55.851Z,89.50
2023-08-19T11:33:24.931Z,89.60
2023-08-19T11:35:51.855Z,89.60
2023-08-19T11:38:18.466Z,89.60
2023-08-19T11:40:44.999Z,89.60
2023-08-19T11:43:11.579Z,89.80
2023-08-19T11:45:38.172Z,89.90
2023-08-19T11:48:04.748Z,89.80
2023-08-19T11:50:31.274Z,90.00
2023-08-19T11:52:57.855Z,90.00
2023-08-19T11:55:24.387Z,89.80
2023-08-19T11:57:50.964Z,90.00
2023-08-19T12:03:08.324Z,90.00
2023-08-19T12:05:34.870Z,90.10
2023-08-19T12:08:01.378Z,90.10
2023-08-19T12:10:27.925Z,90.10
2023-08-19T12:12:54.456Z,90.10
2023-08-19T12:15:21.000Z,90.10
2023-08-19T12:17:47.589Z,90.20
2023-08-19T12:20:14.132Z,90.20
2023-08-19T12:22:40.648Z,90.20
2023-08-19T12:25:07.163Z,90.20
2023-08-19T12:27:33.683Z,90.20
2023-08-19T12:30:00.210Z,90.30
2023-08-19T12:32:29.751Z,90.20
2023-08-19T12:34:56.271Z,90.20
2023-08-19T12:37:22.825Z,90.20
2023-08-19T12:39:52.505Z,90.30
2023-08-19T12:42:19.079Z,90.30
2023-08-19T12:44:45.624Z,90.30
2023-08-19T12:47:12.172Z,90.30
2023-08-19T12:49:38.701Z,90.30
2023-08-19T12:52:05.243Z,90.40
2023-08-19T12:54:31.782Z,90.40
2023-08-19T12:56:58.323Z,90.40
2023-08-19T12:59:28.679Z,90.40
2023-08-19T13:01:55.301Z,90.40
2023-08-19T13:04:21.825Z,90.50
2023-08-19T13:06:48.421Z,90.50
2023-08-19T13:09:14.927Z,90.50
2023-08-19T13:11:41.435Z,90.60
2023-08-19T13:14:08.032Z,90.70
2023-08-19T13:16:34.647Z,90.60
2023-08-19T13:19:01.162Z,90.60
2023-08-19T13:21:27.663Z,90.70
2023-08-19T13:23:54.187Z,90.70
2023-08-19T13:26:20.701Z,90.80
2023-08-19T13:28:52.732Z,90.80
2023-08-19T13:31:19.365Z,90.80
2023-08-19T13:33:45.952Z,90.80
2023-08-19T13:36:12.477Z,90.80
2023-08-19T13:38:39.018Z,90.80
2023-08-19T13:41:05.543Z,90.90
2023-08-19T13:43:32.058Z,90.90
2023-08-19T13:45:58.609Z,90.90
2023-08-19T13:48:25.214Z,90.90
2023-08-19T13:50:51.741Z,91.00
2023-08-19T13:53:18.275Z,90.90
2023-08-19T13:55:44.896Z,90.90
2023-08-19T13:58:11.547Z,90.90
2023-08-19T14:00:40.624Z,91.00
2023-08-19T14:03:07.253Z,91.00
2023-08-19T14:05:33.837Z,91.10
2023-08-19T14:08:00.349Z,91.00
2023-08-19T14:10:26.892Z,91.00
2023-08-19T14:15:33.758Z,91.10
2023-08-19T14:18:00.341Z,91.10
2023-08-19T14:20:28.559Z,91.10
2023-08-19T14:22:55.083Z,91.10
2023-08-19T14:25:21.640Z,91.10
2023-08-19T14:27:48.189Z,91.10
2023-08-19T14:30:14.750Z,91.20
2023-08-19T14:32:41.331Z,91.20
2023-08-19T14:35:10.574Z,91.20
2023-08-19T14:37:39.866Z,91.20
2023-08-19T14:40:07.782Z,91.30
2023-08-19T14:42:34.648Z,91.20
2023-08-19T14:45:03.657Z,91.30
2023-08-19T14:47:30.166Z,91.30
2023-08-19T14:52:37.032Z,91.30
2023-08-19T14:55:03.555Z,91.30
2023-08-19T14:57:30.097Z,91.30
2023-08-19T14:59:56.622Z,91.30
2023-08-19T15:02:23.189Z,91.30
2023-08-19T15:04:49.784Z,91.30
2023-08-19T15:07:16.307Z,91.40
2023-08-19T15:09:42.800Z,91.40
2023-08-19T15:12:09.335Z,91.40
2023-08-19T15:14:35.853Z,91.40
2023-08-19T15:17:02.364Z,91.40
2023-08-19T15:19:28.907Z,91.40
2023-08-19T15:21:55.434Z,91.40
2023-08-19T15:27:02.287Z,91.40
2023-08-19T15:29:34.646Z,91.40
2023-08-19T15:34:51.711Z,91.40
2023-08-19T15:37:18.255Z,91.40
2023-08-19T15:39:47.618Z,91.50
2023-08-19T15:42:14.237Z,91.50
2023-08-19T15:44:40.786Z,91.50
2023-08-19T15:47:07.319Z,91.50
2023-08-19T15:49:33.831Z,91.50
2023-08-19T15:52:00.384Z,91.50
2023-08-19T15:54:26.922Z,91.50
2023-08-19T15:56:53.446Z,91.50
2023-08-19T15:59:19.982Z,91.50
2023-08-19T16:01:46.534Z,91.50
2023-08-19T16:04:13.262Z,91.50
2023-08-19T16:06:39.924Z,91.50
2023-08-19T16:09:06.495Z,91.50
2023-08-19T16:11:33.020Z,91.60
2023-08-19T16:13:59.562Z,91.50
2023-08-19T16:16:26.272Z,91.60
2023-08-19T16:18:52.833Z,91.50
2023-08-19T16:21:22.814Z,91.50
2023-08-19T16:23:49.383Z,91.50
2023-08-19T16:26:15.907Z,91.50
2023-08-19T16:28:42.550Z,91.50
2023-08-19T16:31:09.078Z,91.60
2023-08-19T16:33:40.692Z,91.60
2023-08-19T16:36:07.224Z,91.60
2023-08-19T16:38:33.749Z,91.60
2023-08-19T16:41:00.268Z,91.60
2023-08-19T16:43:26.797Z,91.60
2023-08-19T16:45:53.344Z,91.60
2023-08-19T16:48:19.859Z,91.60
2023-08-19T16:50:46.386Z,91.60
2023-08-19T16:53:12.893Z,91.60
2023-08-19T16:55:39.415Z,91.60
2023-08-19T16:58:05.959Z,91.60
2023-08-19T17:00:32.497Z,91.60
2023-08-19T17:02:59.038Z,91.50
2023-08-19T17:05:28.057Z,91.50
2023-08-19T17:07:54.579Z,91.50
2023-08-19T17:10:22.153Z,91.50
2023-08-19T17:12:49.507Z,91.50
2023-08-19T17:15:16.737Z,91.50
2023-08-19T17:17:43.340Z,91.50
2023-08-19T17:20:09.944Z,91.40
2023-08-19T17:22:36.471Z,91.40
2023-08-19T17:25:03.001Z,91.40
2023-08-19T17:27:29.636Z,91.40
2023-08-19T17:29:56.189Z,91.30
2023-08-19T17:32:22.703Z,91.30
2023-08-19T17:34:49.246Z,91.20
2023-08-19T17:37:15.759Z,91.20
2023-08-19T17:39:42.268Z,91.20
2023-08-19T17:42:08.770Z,91.20
2023-08-19T17:44:35.310Z,91.20
2023-08-19T17:47:01.856Z,91.10
2023-08-19T17:49:28.391Z,91.20
2023-08-19T17:51:54.913Z,91.10
2023-08-19T17:54:21.456Z,91.10
2023-08-19T17:56:48.003Z,91.10
2023-08-19T17:59:14.528Z,91.00
2023-08-19T18:01:41.213Z,91.10
2023-08-19T18:04:07.758Z,91.10
2023-08-19T18:06:34.290Z,91.10
2023-08-19T18:09:00.942Z,91.00
2023-08-19T18:11:27.485Z,91.00
2023-08-19T18:13:53.988Z,91.40
2023-08-19T18:16:22.833Z,91.00
2023-08-19T18:18:49.409Z,91.00
2023-08-19T18:21:15.946Z,91.00
2023-08-19T18:23:42.460Z,91.00
2023-08-19T18:26:08.970Z,91.00
2023-08-19T18:31:15.810Z,91.00
2023-08-19T18:33:42.345Z,91.00
2023-08-19T18:36:08.881Z,91.00
2023-08-19T18:38:35.369Z,91.00
2023-08-19T18:41:01.901Z,91.00
2023-08-19T18:43:28.463Z,91.00
2023-08-19T18:45:55.029Z,91.00
2023-08-19T18:48:21.600Z,91.00
2023-08-19T18:50:48.139Z,91.00
2023-08-19T18:53:14.679Z,91.00
2023-08-19T18:55:41.199Z,91.00
2023-08-19T18:58:07.748Z,91.00
2023-08-19T19:00:34.271Z,91.00
2023-08-19T19:03:00.852Z,91.00
2023-08-19T19:05:27.428Z,90.90
2023-08-19T19:07:53.964Z,90.90
2023-08-19T19:10:20.511Z,90.90
2023-08-19T19:12:47.076Z,90.90
2023-08-19T19:15:13.597Z,90.90
2023-08-19T19:17:40.860Z,90.90
2023-08-19T19:20:07.405Z,90.90
2023-08-19T19:22:33.900Z,90.90
2023-08-19T19:25:00.410Z,90.90
2023-08-19T19:27:26.914Z,90.80
2023-08-19T19:29:53.396Z,90.80
2023-08-19T19:32:19.923Z,91.10
2023-08-19T19:34:48.623Z,90.80
2023-08-19T19:37:15.115Z,90.80
2023-08-19T19:39:41.628Z,90.80
2023-08-19T19:42:08.168Z,90.70
2023-08-19T19:44:34.703Z,90.80
2023-08-19T19:47:01.245Z,90.70
2023-08-19T19:49:27.764Z,90.80
2023-08-19T19:51:54.301Z,90.70
2023-08-19T19:54:20.846Z,90.60
2023-08-19T19:56:53.018Z,90.70
2023-08-19T19:59:19.548Z,90.60
2023-08-19T20:01:46.072Z,90.40
2023-08-19T20:04:12.603Z,90.10
2023-08-19T20:06:39.124Z,90.50
2023-08-19T20:09:06.797Z,90.40
2023-08-19T20:11:33.330Z,90.20
2023-08-19T20:13:59.855Z,90.30
2023-08-19T20:16:26.429Z,90.00
2023-08-19T20:18:53.010Z,88.50
2023-08-19T20:21:19.527Z,88.10
2023-08-19T20:23:47.526Z,87.90
2023-08-19T20:26:15.707Z,87.80
2023-08-19T20:28:42.223Z,87.50
2023-08-19T20:31:08.759Z,87.30
2023-08-19T20:33:35.306Z,87.90
2023-08-19T20:36:01.835Z,89.70
2023-08-19T20:38:28.361Z,87.60
2023-08-19T20:40:54.897Z,87.70
2023-08-19T20:43:21.432Z,87.70
2023-08-19T20:45:48.898Z,87.40
2023-08-19T20:48:17.000Z,87.20
2023-08-19T20:50:44.611Z,89.70
2023-08-19T20:53:11.171Z,87.90
2023-08-19T20:55:37.720Z,87.50
2023-08-19T20:58:04.279Z,87.60
2023-08-19T21:00:33.170Z,87.20
2023-08-19T21:02:59.752Z,87.00
2023-08-19T21:05:26.304Z,86.90
2023-08-19T21:07:52.776Z,87.00
2023-08-19T21:10:19.286Z,86.90
2023-08-19T21:12:45.831Z,86.80
2023-08-19T21:15:12.334Z,86.70
2023-08-19T21:17:41.069Z,86.80
2023-08-19T21:20:07.595Z,86.70
2023-08-19T21:22:34.242Z,86.60
2023-08-19T21:25:00.764Z,86.50
2023-08-19T21:27:27.319Z,87.10
2023-08-19T21:29:53.822Z,86.40
2023-08-19T21:32:20.410Z,86.50
2023-08-19T21:34:46.970Z,86.50
2023-08-19T21:37:13.490Z,86.80
2023-08-19T21:39:40.029Z,86.30
2023-08-19T21:42:06.567Z,86.30
2023-08-19T21:44:33.101Z,86.50
2023-08-19T21:46:59.701Z,86.40
2023-08-19T21:49:26.264Z,86.20
2023-08-19T21:51:52.772Z,86.30
2023-08-19T21:54:23.078Z,86.00
2023-08-19T21:56:49.597Z,86.00
2023-08-19T21:59:16.102Z,86.10
2023-08-19T22:01:42.633Z,86.00
2023-08-19T22:04:09.164Z,86.00
2023-08-19T22:09:15.996Z,86.80
2023-08-19T22:11:42.534Z,86.00
2023-08-19T22:14:09.049Z,86.10
2023-08-19T22:16:35.587Z,86.50
2023-08-19T22:19:02.122Z,86.10
2023-08-19T22:21:29.008Z,86.10
2023-08-19T22:23:55.527Z,86.30
2023-08-19T22:26:22.043Z,86.30
2023-08-19T22:28:48.568Z,86.00
2023-08-19T22:31:15.128Z,86.30
2023-08-19T22:33:41.684Z,86.10
2023-08-19T22:36:08.239Z,86.10
2023-08-19T22:38:34.807Z,86.10
2023-08-19T22:41:03.477Z,86.00
2023-08-19T22:43:30.024Z,86.10
2023-08-19T22:45:56.540Z,85.90
2023-08-19T22:48:29.006Z,85.90
2023-08-19T22:50:55.596Z,86.00
2023-08-19T22:53:22.126Z,86.10
2023-08-19T22:55:48.667Z,86.30
2023-08-19T22:58:15.224Z,85.90
2023-08-19T23:00:41.766Z,86.00
2023-08-19T23:03:08.351Z,86.00
2023-08-19T23:05:34.899Z,86.00
2023-08-19T23:08:01.423Z,86.10
2023-08-19T23:10:29.011Z,86.10
2023-08-19T23:12:55.583Z,86.10
2023-08-19T23:15:22.127Z,86.10
2023-08-19T23:17:50.079Z,86.10
2023-08-19T23:20:18.361Z,86.10
2023-08-19T23:22:44.845Z,86.20
2023-08-19T23:25:11.372Z,86.00
2023-08-19T23:27:37.899Z,86.10
2023-08-19T23:30:04.405Z,86.00
2023-08-19T23:32:30.942Z,86.20
2023-08-19T23:34:57.470Z,86.20
2023-08-19T23:37:23.990Z,86.10
2023-08-19T23:39:50.512Z,86.20
2023-08-19T23:42:17.048Z,87.00
2023-08-19T23:44:43.577Z,86.20
2023-08-19T23:47:10.092Z,86.40
2023-08-19T23:49:36.580Z,86.40
2023-08-19T23:52:03.108Z,86.30
2023-08-19T23:54:29.624Z,86.20
2023-08-19T23:56:56.181Z,86.20
2023-08-19T23:59:22.711Z,86.20
